Flight Track Log - Related Links

Times and Time Zones

All times are in EDT time to prevent confusion due to time zone crossing. See the FLG3931 flight status page for this flight to view local times or setup timezone preferences in your user account.

Time Position Orientation Groundspeed Altitude Reporting Facility
EDT Latitude Longitude Course Direction KTS MPH feet Rate Location/Type
Mon 03:21:09 PM 43.5953 -84.2542 296° West 257 296 24,000  Level Minneapolis Center
Mon 03:22:00 PM 43.6856 -84.5305 299° West  Level FlightAware Approximate
Mon 03:22:10 PM 43.6275 -84.3286 301° West 312 359 5,600  Level Minneapolis Center
Mon 03:23:00 PM 43.7220 -84.6492 295° West  Level FlightAware Approximate
Mon 03:23:12 PM 43.6550 -84.4156 294° West 262 302 8,100  Level Minneapolis Center
Mon 03:24:00 PM 43.7615 -84.7678 295° West  Level FlightAware Approximate
Mon 03:24:14 PM 43.6850 -84.5069 294° West 261 300 10,500  Level Minneapolis Center
Mon 03:25:00 PM 43.8017 -84.8822 296° West  Level FlightAware Approximate
Mon 03:25:15 PM 43.7153 -84.6008 294° West 266 306 12,300  Level Minneapolis Center
Mon 03:26:00 PM 43.8420 -84.9966 296° West  Level FlightAware Approximate
Mon 03:26:17 PM 43.7422 -84.7403 285° West 308 354 14,100  Level Minneapolis Center
Mon 03:27:18 PM 43.7664 -84.8611 286° West 324 373 15,900 976 Climbing Minneapolis Center
Mon 03:28:20 PM 43.7908 -84.9797 286° West 324 373 16,100 871 Climbing Minneapolis Center
Mon 03:29:22 PM 43.8156 -85.1006 286° West 325 374 17,700 1,306 Climbing Minneapolis Center
Mon 03:30:24 PM 43.8411 -85.2275 286° West 338 389 18,800 1,122 Climbing Minneapolis Center
Mon 03:31:25 PM 43.8672 -85.3553 286° West 344 396 20,000 1,024 Climbing Minneapolis Center
Mon 03:32:27 PM 43.8928 -85.4842 285° West 347 399 20,900 1,065 Climbing Minneapolis Center
Mon 03:33:29 PM 43.9239 -85.6414 285° West 352 405 22,200 1,024 Climbing Minneapolis Center
Mon 03:34:30 PM 43.9494 -85.7719 285° West 353 406 23,000 829 Climbing Minneapolis Center
Mon 03:35:32 PM 43.9750 -85.9042 285° West 356 410 23,900 484 Climbing Minneapolis Center
Mon 03:36:34 PM 44.0011 -86.0389 285° West 362 417 24,000 48 Climbing Minneapolis Center
Mon 03:37:36 PM 44.0281 -86.1806 285° West 378 435 24,000  Level Minneapolis Center
Mon 03:38:37 PM 44.0564 -86.3261 285° West 389 448 24,000  Level Minneapolis Center
Mon 03:39:39 PM 44.0894 -86.5039 285° West 396 456 24,000  Level Minneapolis Center
Mon 03:40:41 PM 44.1181 -86.6581 285° West 408 470 24,000  Level Minneapolis Center
Mon 03:41:43 PM 44.1472 -86.8100 285° West 409 471 24,000  Level Minneapolis Center
Mon 03:42:44 PM 44.1733 -86.9594 284° West 409 471 24,000  Level Minneapolis Center
Mon 03:43:46 PM 44.2019 -87.1147 284° West 411 473 24,000  Level Minneapolis Center
Mon 03:44:48 PM 44.2319 -87.2819 284° West 412 474 24,000  Level Minneapolis Center
Mon 03:45:50 PM 44.2631 -87.4625 284° West 411 473 24,000  Level Minneapolis Center
Mon 03:46:52 PM 44.2903 -87.6169 284° West 411 473 24,000  Level Minneapolis Center
Mon 03:47:53 PM 44.3183 -87.7739 284° West 415 478 24,000  Level Minneapolis Center
Mon 03:48:55 PM 44.3442 -87.9286 283° West 413 475 24,000  Level Minneapolis Center
Mon 03:49:57 PM 44.3728 -88.0872 284° West 418 481 24,000  Level Minneapolis Center
Mon 03:50:59 PM 44.3994 -88.2461 283° West 421 484 24,000  Level Minneapolis Center
Mon 03:52:00 PM 44.4314 -88.4300 284° West 420 483 24,000  Level Minneapolis Center
Mon 03:53:02 PM 44.4578 -88.5903 283° West 425 489 24,000  Level Minneapolis Center
Mon 03:54:04 PM 44.4847 -88.7467 284° West 419 482 24,000  Level Minneapolis Center
Mon 03:55:05 PM 44.5100 -88.9064 283° West 419 482 24,000  Level Minneapolis Center
Mon 03:56:07 PM 44.5350 -89.0650 283° West 419 482 24,000  Level Minneapolis Center
Mon 03:57:09 PM 44.5592 -89.2200 282° West 410 472 24,000  Level Minneapolis Center
Mon 03:58:11 PM 44.5878 -89.3911 283° West 392 451 24,000  Level Minneapolis Center
Mon 03:59:12 PM 44.6108 -89.5428 282° West 396 456 24,000  Level Minneapolis Center
Mon 04:00:14 PM 44.6347 -89.6956 282° West 401 461 24,000  Level Minneapolis Center
Mon 04:01:16 PM 44.6592 -89.8467 283° West 399 459 24,000  Level Minneapolis Center
Mon 04:02:18 PM 44.6808 -89.9961 282° West 394 453 24,000  Level Minneapolis Center
Mon 04:03:19 PM 44.7047 -90.1456 283° West 393 452 24,000  Level Minneapolis Center
Mon 04:04:21 PM 44.7303 -90.3203 282° West 392 451 24,000  Level Minneapolis Center
Mon 04:05:23 PM 44.7528 -90.4689 282° West 389 448 24,000  Level Minneapolis Center
Mon 04:06:25 PM 44.7744 -90.6189 282° West 388 447 24,000  Level Minneapolis Center
Mon 04:07:26 PM 44.7994 -90.7667 283° West 390 449 24,000  Level Minneapolis Center
Mon 04:08:28 PM 44.8256 -90.9133 284° West 388 447 24,000  Level Minneapolis Center
Mon 04:09:30 PM 44.8497 -91.0583 283° West 385 443 24,000  Level Minneapolis Center
Mon 04:10:32 PM 44.8717 -91.2072 282° West 387 445 24,000 -97 Level Minneapolis Center
Mon 04:11:34 PM 44.9036 -91.3872 284° West 394 453 23,800 -1,122 Descending Minneapolis Center
Mon 04:12:35 PM 44.9278 -91.5292 284° West 384 442 21,700 -2,049 Descending Minneapolis Center
Mon 04:13:37 PM 44.9511 -91.6683 283° West 371 427 19,600 -2,032 Descending Minneapolis Center
Mon 04:14:39 PM 44.9728 -91.8067 283° West 367 422 17,500 -2,032 Descending Minneapolis Center
Mon 04:15:41 PM 44.9953 -91.9364 284° West 342 394 15,400 -2,032 Descending Minneapolis Center
Mon 04:16:43 PM 45.0144 -92.0567 283° West 317 365 13,300 -2,081 Descending Minneapolis Center
Mon 04:17:45 PM 45.0361 -92.1939 283° West 299 344 11,100 -1,122 Descending Minneapolis Center
Mon 04:18:46 PM 45.0478 -92.3072 278° West 295 339 11,000 -48 Descending Minneapolis Center
Mon 04:19:49 PM 45.0281 -92.4219 256° West 303 349 11,000  Level Minneapolis Center
Mon 04:20:50 PM 45.0103 -92.5367 258° West 301 346 11,000  Level Minneapolis Center
Mon 04:21:52 PM 44.9914 -92.6522 257° West 303 349 11,000  Level Minneapolis Center
Mon 04:22:54 PM 44.9731 -92.7664 257° West 300 345 11,000 -194 Level Minneapolis Center
Mon 04:23:56 PM 44.9517 -92.8986 257° West 289 333 10,600 -1,113 Descending Minneapolis Center
Mon 04:24:58 PM 44.9372 -92.9914 258° West 248 285 8,700 -1,258 Descending Minneapolis Center
Mon 04:26:00 PM 44.9356 -93.0783 268° West 235 270 8,000 -581 Descending Minneapolis Center
Mon 04:27:02 PM 44.9739 -93.1550 305° West 242 278 7,500 -1,500 Descending Minneapolis Center
Mon 04:28:04 PM 45.0125 -93.2331 305° West 245 282 4,900 -1,694 Descending Minneapolis Center
Mon 04:29:06 PM 45.0336 -93.3339 287° West 223 257 4,000 -629 Descending Minneapolis Center
Mon 04:30:08 PM 44.9886 -93.3158 164° South 176 203 3,600 -774 Descending Minneapolis Center
Mon 04:31:10 PM 44.9458 -93.2964 162° South 164 189 2,400 -919 Descending Minneapolis Center
Mon 04:32:12 PM 44.9125 -93.2667 148° Southeast 142 163 1,700 -677 Descending Minneapolis Center

Login

Don't have an account? Register now (free) for customized features, flight alerts, and more!